createdAt,value
2023-08-12T00:02:15.207Z,97622.72
2023-08-12T00:04:43.016Z,97614.25
2023-08-12T00:07:10.911Z,97623.44
2023-08-12T00:09:38.734Z,97609.97
2023-08-12T00:12:06.662Z,97607.09
2023-08-12T00:14:34.321Z,97616.81
2023-08-12T00:17:03.348Z,97615.13
2023-08-12T00:19:31.257Z,97612.00
2023-08-12T00:21:59.187Z,97615.63
2023-08-12T00:24:26.842Z,97607.88
2023-08-12T00:26:54.520Z,97609.09
2023-08-12T00:29:22.447Z,97605.91
2023-08-12T00:31:50.347Z,97608.78
2023-08-12T00:34:20.009Z,97611.53
2023-08-12T00:36:47.721Z,97607.09
2023-08-12T00:39:15.437Z,97608.19
2023-08-12T00:41:43.126Z,97614.06
2023-08-12T00:44:10.982Z,97608.38
2023-08-12T00:46:41.680Z,97617.88
2023-08-12T00:49:14.485Z,97613.53
2023-08-12T00:51:46.122Z,97610.59
2023-08-12T00:54:17.235Z,97609.09
2023-08-12T00:56:46.005Z,97611.66
2023-08-12T00:59:14.445Z,97610.44
2023-08-12T01:01:42.977Z,97605.13
2023-08-12T01:04:11.355Z,97604.56
2023-08-12T01:06:39.194Z,97600.97
2023-08-12T01:09:08.711Z,97605.91
2023-08-12T01:11:43.522Z,97593.88
2023-08-12T01:14:21.029Z,97604.00
2023-08-12T01:16:54.203Z,97601.53
2023-08-12T01:19:30.902Z,97603.19
2023-08-12T01:22:02.600Z,97612.31
2023-08-12T01:24:36.916Z,97617.06
2023-08-12T01:27:05.405Z,97607.03
2023-08-12T01:29:34.039Z,97609.22
2023-08-12T01:32:12.071Z,97616.16
2023-08-12T01:34:46.747Z,97603.06
2023-08-12T01:37:24.309Z,97601.47
2023-08-12T01:39:56.071Z,97605.91
2023-08-12T01:42:24.109Z,97601.44
2023-08-12T01:44:52.321Z,97608.47
2023-08-12T01:47:20.005Z,97610.00
2023-08-12T01:49:47.851Z,97614.38
2023-08-12T01:52:15.520Z,97621.19
2023-08-12T01:54:43.177Z,97620.75
2023-08-12T01:57:12.326Z,97616.38
2023-08-12T01:59:40.158Z,97609.78
2023-08-12T02:02:07.976Z,97610.13
2023-08-12T02:04:35.670Z,97609.84
2023-08-12T02:07:03.387Z,97610.72
2023-08-12T02:09:31.237Z,97615.56
2023-08-12T02:11:58.984Z,97607.31
2023-08-12T02:14:28.085Z,97610.66
2023-08-12T02:16:55.838Z,97604.22
2023-08-12T02:19:23.509Z,97603.81
2023-08-12T02:21:51.189Z,97601.06
2023-08-12T02:24:18.850Z,97591.34
2023-08-12T02:26:46.506Z,97598.06
2023-08-12T02:29:14.239Z,97596.06
2023-08-12T02:31:43.408Z,97598.06
2023-08-12T02:34:11.177Z,97596.22
2023-08-12T02:36:38.880Z,97597.63
2023-08-12T02:39:06.557Z,97594.72
2023-08-12T02:41:34.220Z,97583.41
2023-08-12T02:44:01.998Z,97582.88
2023-08-12T02:46:29.669Z,97584.84
2023-08-12T02:48:58.713Z,97589.25
2023-08-12T02:51:26.413Z,97585.22
2023-08-12T02:53:54.070Z,97596.09
2023-08-12T02:56:21.719Z,97591.41
2023-08-12T02:58:49.354Z,97595.63
2023-08-12T03:01:17.208Z,97593.06
2023-08-12T03:03:44.959Z,97589.28
2023-08-12T03:06:14.006Z,97583.28
2023-08-12T03:08:41.702Z,97586.53
2023-08-12T03:11:09.458Z,97581.78
2023-08-12T03:13:37.146Z,97589.91
2023-08-12T03:16:05.286Z,97593.03
2023-08-12T03:18:32.933Z,97588.13
2023-08-12T03:21:00.586Z,97589.09
2023-08-12T03:23:29.593Z,97594.97
2023-08-12T03:25:57.264Z,97586.22
2023-08-12T03:28:24.979Z,97588.19
2023-08-12T03:30:53.626Z,97577.47
2023-08-12T03:33:21.600Z,97587.88
2023-08-12T03:35:50.270Z,97589.84
2023-08-12T03:38:17.970Z,97595.56
2023-08-12T03:40:47.044Z,97599.03
2023-08-12T03:43:14.718Z,97589.31
2023-08-12T03:45:43.632Z,97586.91
2023-08-12T03:48:12.005Z,97585.53
2023-08-12T03:50:40.275Z,97596.44
2023-08-12T03:53:07.942Z,97590.09
2023-08-12T03:55:35.717Z,97587.81
2023-08-12T03:58:05.368Z,97586.75
2023-08-12T04:00:33.084Z,97586.72
2023-08-12T04:03:01.134Z,97573.25
2023-08-12T04:05:31.366Z,97571.59
2023-08-12T04:07:59.039Z,97578.91
2023-08-12T04:10:26.680Z,97577.06
2023-08-12T04:12:54.355Z,97578.63
2023-08-12T04:15:23.755Z,97583.91
2023-08-12T04:17:51.430Z,97576.63
2023-08-12T04:20:19.070Z,97581.97
2023-08-12T04:22:49.862Z,97579.44
2023-08-12T04:25:18.044Z,97582.75
2023-08-12T04:27:45.726Z,97581.28
2023-08-12T04:30:13.761Z,97587.03
2023-08-12T04:32:42.859Z,97580.50
2023-08-12T04:35:10.842Z,97574.41
2023-08-12T04:37:38.542Z,97576.25
2023-08-12T04:40:07.825Z,97577.09
2023-08-12T04:42:35.534Z,97575.31
2023-08-12T04:45:03.755Z,97579.72
2023-08-12T04:47:31.456Z,97570.16
2023-08-12T04:50:00.631Z,97569.81
2023-08-12T04:52:28.361Z,97573.44
2023-08-12T04:54:56.043Z,97575.88
2023-08-12T04:57:23.794Z,97575.19
2023-08-12T04:59:51.486Z,97574.81
2023-08-12T05:02:19.182Z,97576.50
2023-08-12T05:04:49.297Z,97576.94
2023-08-12T05:07:19.041Z,97580.56
2023-08-12T05:09:46.720Z,97577.09
2023-08-12T05:12:14.645Z,97572.75
2023-08-12T05:14:42.883Z,97575.63
2023-08-12T05:17:10.968Z,97582.06
2023-08-12T05:19:38.789Z,97576.47
2023-08-12T05:22:06.449Z,97570.91
2023-08-12T05:24:37.823Z,97575.84
2023-08-12T05:29:50.977Z,97570.75
2023-08-12T05:32:18.645Z,97570.84
2023-08-12T05:34:46.310Z,97572.47
2023-08-12T05:37:13.988Z,97566.91
2023-08-12T05:39:43.015Z,97565.56
2023-08-12T05:42:10.936Z,97567.53
2023-08-12T05:44:41.456Z,97566.41
2023-08-12T05:47:09.130Z,97565.69
2023-08-12T05:49:36.927Z,97566.88
2023-08-12T05:52:05.276Z,97569.63
2023-08-12T05:54:33.010Z,97573.25
2023-08-12T05:57:02.076Z,97568.53
2023-08-12T05:59:29.775Z,97567.06
2023-08-12T06:01:57.450Z,97577.69
2023-08-12T06:04:25.216Z,97577.69
2023-08-12T06:06:53.908Z,97576.31
2023-08-12T06:09:25.042Z,97575.47
2023-08-12T06:11:52.782Z,97571.25
2023-08-12T06:14:21.781Z,97578.84
2023-08-12T06:16:49.463Z,97572.78
2023-08-12T06:19:17.196Z,97584.16
2023-08-12T06:21:44.901Z,97575.06
2023-08-12T06:24:12.585Z,97573.38
2023-08-12T06:26:40.363Z,97578.47
2023-08-12T06:29:08.050Z,97577.56
2023-08-12T06:31:37.128Z,97577.03
2023-08-12T06:34:05.295Z,97574.94
2023-08-12T06:36:32.961Z,97571.13
2023-08-12T06:39:00.673Z,97577.34
2023-08-12T06:41:28.401Z,97574.13
2023-08-12T06:43:56.119Z,97575.53
2023-08-12T06:46:24.014Z,97567.84
2023-08-12T06:48:53.107Z,97577.97
2023-08-12T06:51:21.144Z,97583.16
2023-08-12T06:53:48.890Z,97595.31
2023-08-12T06:56:16.621Z,97605.91
2023-08-12T06:58:44.649Z,97605.38
2023-08-12T07:01:14.512Z,97602.75
2023-08-12T07:03:43.394Z,97606.44
2023-08-12T07:06:12.484Z,97620.09
2023-08-12T07:08:40.206Z,97628.75
2023-08-12T07:11:07.904Z,97630.03
2023-08-12T07:13:35.597Z,97623.00
2023-08-12T07:16:03.555Z,97625.31
2023-08-12T07:18:31.303Z,97623.78
2023-08-12T07:20:59.053Z,97612.47
2023-08-12T07:23:28.182Z,97616.81
2023-08-12T07:25:56.477Z,97610.09
2023-08-12T07:28:24.139Z,97611.63
2023-08-12T07:30:51.874Z,97608.97
2023-08-12T07:33:20.708Z,97607.53
2023-08-12T07:35:48.953Z,97605.22
2023-08-12T07:38:16.625Z,97610.25
2023-08-12T07:40:45.808Z,97619.63
2023-08-12T07:43:13.506Z,97612.72
2023-08-12T07:45:41.249Z,97619.94
2023-08-12T07:48:09.010Z,97623.75
2023-08-12T07:50:36.721Z,97621.00
2023-08-12T07:53:04.691Z,97626.25
2023-08-12T07:55:32.352Z,97632.47
2023-08-12T07:58:01.403Z,97636.38
2023-08-12T08:00:29.099Z,97645.97
2023-08-12T08:02:56.791Z,97645.34
2023-08-12T08:05:24.555Z,97639.28
2023-08-12T08:07:52.357Z,97642.03
2023-08-12T08:10:20.051Z,97649.28
2023-08-12T08:12:47.710Z,97676.41
2023-08-12T08:15:16.855Z,97672.31
2023-08-12T08:17:44.649Z,97674.63
2023-08-12T08:20:12.439Z,97649.38
2023-08-12T08:22:40.466Z,97656.81
2023-08-12T08:25:08.838Z,97677.31
2023-08-12T08:27:36.528Z,97696.34
2023-08-12T08:30:04.717Z,97689.38
2023-08-12T08:32:33.943Z,97674.69
2023-08-12T08:35:01.757Z,97677.38
2023-08-12T08:37:29.436Z,97681.75
2023-08-12T08:39:57.624Z,97693.94
2023-08-12T08:42:25.770Z,97682.28
2023-08-12T08:44:54.194Z,97692.97
2023-08-12T08:47:27.669Z,97696.13
2023-08-12T08:49:57.900Z,97701.03
2023-08-12T08:52:25.909Z,97712.03
2023-08-12T08:54:53.837Z,97703.63
2023-08-12T08:57:23.411Z,97701.03
2023-08-12T09:02:26.256Z,97708.44
2023-08-12T09:04:56.149Z,97700.72
2023-08-12T09:07:24.550Z,97706.22
2023-08-12T09:09:55.179Z,97696.38
2023-08-12T09:12:25.018Z,97695.84
2023-08-12T09:14:52.808Z,97695.13
2023-08-12T09:17:20.510Z,97679.88
2023-08-12T09:19:48.210Z,97677.09
2023-08-12T09:22:19.117Z,97674.97
2023-08-12T09:24:46.812Z,97687.50
2023-08-12T09:27:18.564Z,97680.38
2023-08-12T09:29:46.244Z,97687.97
2023-08-12T09:32:18.662Z,97691.31
2023-08-12T09:34:48.053Z,97693.22
2023-08-12T09:37:17.200Z,97686.53
2023-08-12T09:39:45.516Z,97678.94
2023-08-12T09:42:13.724Z,97677.84
2023-08-12T09:44:43.852Z,97665.97
2023-08-12T09:47:11.656Z,97672.25
2023-08-12T09:49:40.351Z,97674.59
2023-08-12T09:52:10.008Z,97673.97
2023-08-12T09:54:39.623Z,97672.56
2023-08-12T09:57:11.595Z,97672.97
2023-08-12T09:59:41.950Z,97671.09
2023-08-12T10:02:16.445Z,97672.06
2023-08-12T10:04:46.380Z,97665.38
2023-08-12T10:07:15.535Z,97662.22
2023-08-12T10:09:45.182Z,97666.53
2023-08-12T10:12:16.744Z,97658.09
2023-08-12T10:14:47.069Z,97660.97
2023-08-12T10:17:19.414Z,97666.72
2023-08-12T10:19:56.573Z,97659.38
2023-08-12T10:22:26.637Z,97654.97
2023-08-12T10:24:55.631Z,97651.25
2023-08-12T10:27:23.737Z,97645.94
2023-08-12T10:29:51.688Z,97641.06
2023-08-12T10:32:19.587Z,97633.66
2023-08-12T10:34:55.523Z,97632.84
2023-08-12T10:37:25.358Z,97629.13
2023-08-12T10:39:55.045Z,97626.31
2023-08-12T10:42:42.182Z,97617.78
2023-08-12T10:45:11.809Z,97626.47
2023-08-12T10:47:42.641Z,97625.28
2023-08-12T10:50:21.421Z,97625.34
2023-08-12T10:52:54.174Z,97624.84
2023-08-12T10:55:25.095Z,97625.94
2023-08-12T10:57:56.601Z,97629.22
2023-08-12T11:00:26.854Z,97622.28
2023-08-12T11:02:56.231Z,97617.63
2023-08-12T11:05:26.122Z,97611.78
2023-08-12T11:07:58.497Z,97613.00
2023-08-12T11:10:33.986Z,97613.63
2023-08-12T11:13:04.341Z,97605.31
2023-08-12T11:15:34.360Z,97605.78
2023-08-12T11:18:04.569Z,97604.69
2023-08-12T11:20:33.675Z,97593.00
2023-08-12T11:23:02.183Z,97581.00
2023-08-12T11:25:32.765Z,97568.38
2023-08-12T11:28:05.427Z,97569.56
2023-08-12T11:30:33.376Z,97562.44
2023-08-12T11:33:02.633Z,97554.72
2023-08-12T11:35:31.061Z,97565.16
2023-08-12T11:37:59.813Z,97554.25
2023-08-12T11:40:29.104Z,97556.31
2023-08-12T11:42:58.316Z,97558.91
2023-08-12T11:45:27.804Z,97562.53
2023-08-12T11:47:56.317Z,97555.91
2023-08-12T11:50:27.024Z,97554.88
2023-08-12T11:52:57.159Z,97557.63
2023-08-12T11:55:25.668Z,97562.94
2023-08-12T11:57:53.841Z,97559.97
2023-08-12T12:00:26.126Z,97564.00
2023-08-12T12:02:56.124Z,97564.47
2023-08-12T12:05:26.364Z,97549.22
2023-08-12T12:07:54.663Z,97547.16
2023-08-12T12:10:29.309Z,97552.03
2023-08-12T12:13:01.574Z,97541.81
2023-08-12T12:15:30.950Z,97541.25
2023-08-12T12:18:00.035Z,97543.59
2023-08-12T12:20:28.021Z,97546.28
2023-08-12T12:22:55.673Z,97549.66
2023-08-12T12:25:23.787Z,97541.28
2023-08-12T12:27:53.672Z,97541.31
2023-08-12T12:30:21.381Z,97540.19
2023-08-12T12:32:50.524Z,97538.16
2023-08-12T12:35:18.301Z,97541.47
2023-08-12T12:37:45.966Z,97549.31
2023-08-12T12:40:13.635Z,97557.34
2023-08-12T12:42:41.371Z,97554.56
2023-08-12T12:45:10.394Z,97554.81
2023-08-12T12:47:38.078Z,97554.28
2023-08-12T12:50:08.076Z,97549.56
2023-08-12T12:52:35.791Z,97554.19
2023-08-12T12:55:03.905Z,97549.03
2023-08-12T12:57:31.574Z,97548.31
2023-08-12T12:59:59.273Z,97546.19
2023-08-12T13:02:27.126Z,97553.91
2023-08-12T13:04:54.803Z,97552.78
2023-08-12T13:07:23.906Z,97555.28
2023-08-12T13:09:51.611Z,97552.03
2023-08-12T13:12:19.508Z,97555.47
2023-08-12T13:14:47.163Z,97556.81
2023-08-12T13:17:14.898Z,97555.63
2023-08-12T13:19:42.566Z,97554.47
2023-08-12T13:22:10.234Z,97570.06
2023-08-12T13:24:39.341Z,97552.31
2023-08-12T13:27:07.568Z,97553.06
2023-08-12T13:29:35.211Z,97554.59
2023-08-12T13:32:02.908Z,97553.56
2023-08-12T13:34:30.648Z,97559.78
2023-08-12T13:36:58.336Z,97555.91
2023-08-12T13:39:25.996Z,97556.03
2023-08-12T13:41:55.032Z,97554.19
2023-08-12T13:44:22.720Z,97552.13
2023-08-12T13:46:50.424Z,97554.56
2023-08-12T13:49:18.089Z,97551.69
2023-08-12T13:51:46.115Z,97550.00
2023-08-12T13:54:13.800Z,97547.28
2023-08-12T13:56:41.511Z,97539.91
2023-08-12T13:59:10.584Z,97542.50
2023-08-12T14:01:38.331Z,97542.22
2023-08-12T14:04:06.477Z,97530.97
2023-08-12T14:06:34.225Z,97526.22
2023-08-12T14:09:01.936Z,97525.69
2023-08-12T14:11:29.784Z,97519.69
2023-08-12T14:13:58.703Z,97506.41
2023-08-12T14:16:27.869Z,97515.28
2023-08-12T14:18:55.618Z,97518.81
2023-08-12T14:21:23.465Z,97504.88
2023-08-12T14:23:51.288Z,97504.78
2023-08-12T14:26:18.953Z,97506.16
2023-08-12T14:28:46.613Z,97502.13
2023-08-12T14:31:14.322Z,97502.63
2023-08-12T14:33:43.404Z,97504.09
2023-08-12T14:36:11.073Z,97502.59
2023-08-12T14:38:38.795Z,97509.59
2023-08-12T14:41:06.659Z,97499.25
2023-08-12T14:43:34.406Z,97506.50
2023-08-12T14:46:02.154Z,97507.38
2023-08-12T14:48:32.173Z,97515.53
2023-08-12T14:51:01.253Z,97518.84
2023-08-12T14:53:29.628Z,97514.81
2023-08-12T14:55:57.416Z,97518.88
2023-08-12T14:58:25.077Z,97517.88
2023-08-12T15:00:52.894Z,97517.69
2023-08-12T15:03:20.959Z,97513.94
2023-08-12T15:05:48.788Z,97520.63
2023-08-12T15:08:17.843Z,97512.94
2023-08-12T15:10:45.513Z,97516.69
2023-08-12T15:13:13.260Z,97511.13
2023-08-12T15:15:41.068Z,97517.09
2023-08-12T15:18:08.803Z,97510.13
2023-08-12T15:20:36.491Z,97511.72
2023-08-12T15:23:04.685Z,97505.22
2023-08-12T15:25:33.760Z,97506.19
2023-08-12T15:28:01.604Z,97510.75
2023-08-12T15:30:29.577Z,97506.31
2023-08-12T15:32:57.335Z,97511.16
2023-08-12T15:35:25.101Z,97510.66
2023-08-12T15:37:53.069Z,97511.56
2023-08-12T15:40:20.849Z,97503.31
2023-08-12T15:42:49.895Z,97502.78
2023-08-12T15:45:17.735Z,97500.84
2023-08-12T15:47:45.500Z,97499.44
2023-08-12T15:50:13.243Z,97501.03
2023-08-12T15:52:40.972Z,97494.97
2023-08-12T15:55:09.118Z,97505.09
2023-08-12T15:57:36.859Z,97506.88
2023-08-12T16:00:07.221Z,97505.03
2023-08-12T16:02:35.103Z,97494.13
2023-08-12T16:05:03.063Z,97488.94
2023-08-12T16:07:30.758Z,97494.88
2023-08-12T16:09:58.528Z,97486.19
2023-08-12T16:12:26.268Z,97488.28
2023-08-12T16:14:53.967Z,97486.84
2023-08-12T16:17:23.008Z,97488.25
2023-08-12T16:19:50.751Z,97480.88
2023-08-12T16:22:19.052Z,97483.06
2023-08-12T16:24:46.850Z,97468.28
2023-08-12T16:27:14.581Z,97479.66
2023-08-12T16:29:42.379Z,97465.19
2023-08-12T16:32:10.157Z,97473.63
2023-08-12T16:34:39.301Z,97466.97
2023-08-12T16:37:20.099Z,97471.47
2023-08-12T16:39:51.087Z,97463.72
2023-08-12T16:42:20.811Z,97467.94
2023-08-12T16:44:50.297Z,97471.00
2023-08-12T16:47:18.012Z,97467.91
2023-08-12T16:49:47.041Z,97456.47
2023-08-12T16:52:15.068Z,97462.19
2023-08-12T16:54:43.205Z,97458.97
2023-08-12T16:57:10.961Z,97459.22
2023-08-12T16:59:38.591Z,97454.94
2023-08-12T17:02:06.744Z,97446.91
2023-08-12T17:04:34.478Z,97452.56
2023-08-12T17:07:03.534Z,97456.91
2023-08-12T17:09:31.236Z,97445.59
2023-08-12T17:11:58.958Z,97457.00
2023-08-12T17:14:28.726Z,97447.22
2023-08-12T17:16:57.162Z,97448.00
2023-08-12T17:19:25.356Z,97444.25
2023-08-12T17:21:53.026Z,97438.34
2023-08-12T17:24:22.216Z,97435.81
2023-08-12T17:26:49.961Z,97431.22
2023-08-12T17:29:17.706Z,97436.03
2023-08-12T17:31:45.413Z,97440.69
2023-08-12T17:34:13.077Z,97430.47
2023-08-12T17:36:40.747Z,97434.25
2023-08-12T17:39:08.427Z,97427.94
2023-08-12T17:41:37.494Z,97435.22
2023-08-12T17:44:05.711Z,97435.53
2023-08-12T17:46:33.442Z,97432.91
2023-08-12T17:49:01.442Z,97430.31
2023-08-12T17:51:29.168Z,97433.78
2023-08-12T17:53:56.902Z,97438.84
2023-08-12T17:56:24.622Z,97440.59
2023-08-12T17:58:53.639Z,97432.63
2023-08-12T18:01:21.718Z,97432.38
2023-08-12T18:03:49.531Z,97432.44
2023-08-12T18:06:17.262Z,97434.34
2023-08-12T18:08:44.936Z,97434.53
2023-08-12T18:11:12.603Z,97443.13
2023-08-12T18:13:40.307Z,97452.78
2023-08-12T18:16:09.623Z,97446.44
2023-08-12T18:18:37.437Z,97450.50
2023-08-12T18:21:05.139Z,97453.63
2023-08-12T18:23:32.809Z,97454.69
2023-08-12T18:26:00.499Z,97461.09
2023-08-12T18:28:28.424Z,97463.09
2023-08-12T18:30:56.164Z,97459.69
2023-08-12T18:33:25.375Z,97467.97
2023-08-12T18:35:53.089Z,97475.94
2023-08-12T18:38:20.754Z,97470.63
2023-08-12T18:40:48.438Z,97478.09
2023-08-12T18:43:16.121Z,97468.94
2023-08-12T18:45:44.101Z,97470.56
2023-08-12T18:48:11.801Z,97475.25
2023-08-12T18:50:40.900Z,97468.84
2023-08-12T18:53:08.604Z,97476.50
2023-08-12T18:55:36.370Z,97476.00
2023-08-12T18:58:04.496Z,97478.94
2023-08-12T19:00:32.188Z,97479.00
2023-08-12T19:02:59.982Z,97484.47
2023-08-12T19:05:27.718Z,97486.91
2023-08-12T19:07:56.794Z,97487.09
2023-08-12T19:10:24.880Z,97490.03
2023-08-12T19:12:52.765Z,97488.03
2023-08-12T19:15:20.552Z,97488.69
2023-08-12T19:17:48.268Z,97499.94
2023-08-12T19:20:16.401Z,97495.50
2023-08-12T19:22:44.160Z,97502.28
2023-08-12T19:25:13.314Z,97499.66
2023-08-12T19:27:41.034Z,97500.91
2023-08-12T19:30:09.444Z,97500.63
2023-08-12T19:32:47.613Z,97496.25
2023-08-12T19:35:15.369Z,97506.28
2023-08-12T19:37:43.122Z,97508.66
2023-08-12T19:40:14.358Z,97505.13
2023-08-12T19:42:42.272Z,97501.66
2023-08-12T19:45:10.086Z,97502.19
2023-08-12T19:47:42.505Z,97500.75
2023-08-12T19:50:11.913Z,97503.69
2023-08-12T19:52:39.812Z,97503.22
2023-08-12T19:55:08.916Z,97508.72
2023-08-12T19:57:38.061Z,97509.03
2023-08-12T20:00:06.858Z,97511.25
2023-08-12T20:02:39.346Z,97513.31
2023-08-12T20:05:15.055Z,97520.31
2023-08-12T20:07:43.363Z,97514.53
2023-08-12T20:10:11.136Z,97521.91
2023-08-12T20:12:40.252Z,97522.47
2023-08-12T20:15:09.379Z,97526.03
2023-08-12T20:17:37.051Z,97520.22
2023-08-12T20:20:06.165Z,97527.09
2023-08-12T20:22:33.845Z,97525.75
2023-08-12T20:25:01.607Z,97534.88
2023-08-12T20:27:29.284Z,97529.94
2023-08-12T20:29:59.368Z,97534.19
2023-08-12T20:32:27.091Z,97530.59
2023-08-12T20:34:54.811Z,97531.69
2023-08-12T20:37:22.550Z,97535.22
2023-08-12T20:39:50.812Z,97533.56
2023-08-12T20:42:18.480Z,97536.06
2023-08-12T20:44:46.168Z,97539.13
2023-08-12T20:47:15.437Z,97540.22
2023-08-12T20:49:43.548Z,97540.00
2023-08-12T20:52:13.577Z,97537.41
2023-08-12T20:54:42.532Z,97534.38
2023-08-12T20:57:10.323Z,97531.34
2023-08-12T20:59:38.037Z,97534.91
2023-08-12T21:02:06.136Z,97539.09
2023-08-12T21:04:35.605Z,97534.34
2023-08-12T21:07:03.274Z,97533.13
2023-08-12T21:09:31.015Z,97526.34
2023-08-12T21:11:58.645Z,97524.81
2023-08-12T21:14:26.351Z,97527.00
2023-08-12T21:16:54.021Z,97524.25
2023-08-12T21:19:21.688Z,97524.13
2023-08-12T21:21:50.748Z,97519.56
2023-08-12T21:24:18.467Z,97519.06
2023-08-12T21:26:46.255Z,97530.09
2023-08-12T21:29:13.984Z,97530.56
2023-08-12T21:31:41.763Z,97525.56
2023-08-12T21:34:09.513Z,97524.91
2023-08-12T21:36:37.365Z,97519.97
2023-08-12T21:39:06.516Z,97524.22
2023-08-12T21:41:34.223Z,97515.13
2023-08-12T21:44:02.164Z,97507.97
2023-08-12T21:46:29.823Z,97516.06
2023-08-12T21:48:57.477Z,97510.13
2023-08-12T21:51:25.197Z,97509.44
2023-08-12T21:53:52.984Z,97501.22
2023-08-12T21:56:22.034Z,97499.91
2023-08-12T21:58:49.723Z,97502.59
2023-08-12T22:01:17.424Z,97507.06
2023-08-12T22:03:45.132Z,97503.09
2023-08-12T22:06:13.401Z,97500.22
2023-08-12T22:08:41.154Z,97504.19
2023-08-12T22:11:10.096Z,97502.72
2023-08-12T22:13:39.128Z,97497.38
2023-08-12T22:16:06.954Z,97507.22
2023-08-12T22:18:34.714Z,97498.59
2023-08-12T22:21:02.485Z,97500.97
2023-08-12T22:23:30.145Z,97499.66
2023-08-12T22:25:57.813Z,97495.97
2023-08-12T22:28:25.595Z,97499.84
2023-08-12T22:30:54.812Z,97490.44
2023-08-12T22:33:22.816Z,97503.84
2023-08-12T22:35:50.649Z,97513.00
2023-08-12T22:38:18.704Z,97502.91
2023-08-12T22:40:46.386Z,97512.16
2023-08-12T22:43:15.204Z,97511.88
2023-08-12T22:45:44.800Z,97510.31
2023-08-12T22:48:13.832Z,97500.47
2023-08-12T22:50:41.538Z,97503.63
2023-08-12T22:53:09.285Z,97499.88
2023-08-12T22:55:36.946Z,97499.22
2023-08-12T22:58:04.952Z,97492.28
2023-08-12T23:00:32.879Z,97502.69
2023-08-12T23:03:00.626Z,97498.72
2023-08-12T23:05:29.671Z,97509.44
2023-08-12T23:07:57.341Z,97514.22
2023-08-12T23:10:25.017Z,97513.03
2023-08-12T23:12:52.724Z,97517.47
2023-08-12T23:15:20.421Z,97517.09
2023-08-12T23:17:48.137Z,97522.84
2023-08-12T23:20:15.829Z,97520.28
2023-08-12T23:22:44.827Z,97519.78
2023-08-12T23:25:12.471Z,97520.47
2023-08-12T23:27:40.153Z,97526.06
2023-08-12T23:30:08.978Z,97521.06
2023-08-12T23:32:36.673Z,97523.91
2023-08-12T23:35:05.094Z,97526.19
2023-08-12T23:37:32.752Z,97521.50
2023-08-12T23:40:01.864Z,97528.47
2023-08-12T23:42:29.569Z,97525.91
2023-08-12T23:44:57.294Z,97527.06
2023-08-12T23:47:24.944Z,97529.66
2023-08-12T23:49:52.635Z,97525.31
2023-08-12T23:52:20.340Z,97524.22
2023-08-12T23:54:48.020Z,97526.75
2023-08-12T23:57:17.016Z,97522.59
2023-08-12T23:59:44.903Z,97516.00
